Huntsville, Alabama
Current Conditions -  °F | °C
As of 5:53 PM on Friday 31 Oct 2014 (Local Time) from KHSV Reporting Station
Overcast Overcast  
Wind Chill: 38°   Ceiling: 3700
Heat Index: 46°   Visibility: 10mi
Dew Point: 39°   Wind: 20mph
Humidity: 76%   Direction: 350°N
Pressure: 30.08"   Gusts: 26mph
Location:  34.73°N, 86.58°W
Report Text: KHSV 312253Z 35017G23KT 10SM OVC037 08/04 A3008 RMK AO2 PK WND 34034/2217 RAB18E44 SLP186 P0000 T00780039
Loading
Personal Weather Stations






























Interactive Weather Map New forecast layout! Learn more

10-Day Weather Forecast

Advertisements
Track Severe Weather on mobile